createdAt,value
2023-03-29T00:01:42.497Z,2.60
2023-03-29T00:06:47.726Z,3.60
2023-03-29T00:11:49.268Z,3.00
2023-03-29T00:16:51.222Z,4.20
2023-03-29T00:21:52.952Z,3.70
2023-03-29T00:26:54.661Z,2.90
2023-03-29T00:31:56.387Z,2.90
2023-03-29T00:36:58.993Z,3.90
2023-03-29T00:42:00.730Z,2.10
2023-03-29T00:47:02.457Z,2.50
2023-03-29T00:52:04.060Z,2.30
2023-03-29T00:57:07.000Z,2.70
2023-03-29T01:02:09.533Z,3.60
2023-03-29T01:07:21.312Z,2.40
2023-03-29T01:12:29.760Z,3.70
2023-03-29T01:17:31.814Z,3.80
2023-03-29T01:23:08.776Z,2.70
2023-03-29T01:28:14.765Z,3.30
2023-03-29T01:33:24.043Z,3.00
2023-03-29T01:38:36.139Z,2.80
2023-03-29T01:44:02.464Z,3.20
2023-03-29T01:49:37.826Z,4.10
2023-03-29T01:54:47.848Z,2.40
2023-03-29T01:59:51.760Z,3.30
2023-03-29T02:04:54.690Z,3.50
2023-03-29T02:09:58.350Z,4.80
2023-03-29T02:15:04.644Z,2.50
2023-03-29T02:20:17.382Z,2.40
2023-03-29T02:25:19.513Z,4.20
2023-03-29T02:30:22.734Z,3.50
2023-03-29T02:35:36.438Z,2.60
2023-03-29T02:40:40.741Z,2.80
2023-03-29T02:45:44.339Z,4.20
2023-03-29T02:50:49.498Z,2.50
2023-03-29T02:55:52.806Z,4.00
2023-03-29T03:00:55.906Z,4.30
2023-03-29T03:05:57.912Z,7.70
2023-03-29T03:10:59.708Z,7.30
2023-03-29T03:16:01.528Z,6.80
2023-03-29T03:21:04.715Z,5.70
2023-03-29T03:26:06.516Z,5.00
2023-03-29T03:31:08.226Z,9.20
2023-03-29T03:36:11.281Z,6.70
2023-03-29T03:41:12.868Z,8.20
2023-03-29T03:46:16.472Z,3.70
2023-03-29T03:51:18.469Z,5.50
2023-03-29T03:56:20.545Z,4.50
2023-03-29T04:01:22.096Z,3.50
2023-03-29T04:06:23.574Z,7.80
2023-03-29T04:11:25.752Z,8.10
2023-03-29T04:16:28.490Z,7.20
2023-03-29T04:21:30.059Z,3.90
2023-03-29T04:26:31.550Z,5.20
2023-03-29T04:31:33.643Z,6.60
2023-03-29T04:36:35.542Z,5.70
2023-03-29T04:41:37.096Z,4.60
2023-03-29T04:46:40.352Z,5.90
2023-03-29T04:51:42.399Z,3.70
2023-03-29T04:56:44.085Z,3.80
2023-03-29T05:01:45.901Z,5.90
2023-03-29T05:06:47.508Z,3.50
2023-03-29T05:11:50.339Z,6.60
2023-03-29T05:16:52.202Z,5.80
2023-03-29T05:21:54.193Z,5.90
2023-03-29T05:26:56.462Z,4.70
2023-03-29T05:31:58.119Z,3.20
2023-03-29T05:37:01.566Z,5.70
2023-03-29T05:42:04.538Z,2.80
2023-03-29T05:47:07.212Z,4.10
2023-03-29T05:52:09.217Z,4.20
2023-03-29T05:57:11.542Z,3.50
2023-03-29T06:02:15.493Z,3.10
2023-03-29T06:07:17.676Z,2.70
2023-03-29T06:12:20.407Z,5.70
2023-03-29T06:17:22.402Z,4.90
2023-03-29T06:22:24.106Z,4.00
2023-03-29T06:27:25.823Z,4.10
2023-03-29T06:32:28.154Z,4.00
2023-03-29T06:37:29.779Z,3.40
2023-03-29T06:42:31.292Z,4.50
2023-03-29T06:47:32.979Z,4.30
2023-03-29T06:52:35.697Z,3.30
2023-03-29T06:57:38.805Z,4.60
2023-03-29T07:02:41.320Z,4.30
2023-03-29T07:08:00.453Z,5.80
2023-03-29T07:13:02.027Z,4.10
2023-03-29T07:18:04.946Z,5.70
2023-03-29T07:23:08.167Z,3.10
2023-03-29T07:28:11.256Z,3.00
2023-03-29T07:33:13.432Z,4.40
2023-03-29T07:38:15.623Z,2.70
2023-03-29T07:43:18.329Z,2.60
2023-03-29T07:48:20.314Z,2.60
2023-03-29T07:53:23.118Z,1.80
2023-03-29T07:58:25.353Z,3.00
2023-03-29T08:03:27.885Z,3.80
2023-03-29T08:08:29.513Z,3.40
2023-03-29T08:13:31.249Z,2.50
2023-03-29T08:18:34.665Z,4.50
2023-03-29T08:23:36.439Z,2.30
2023-03-29T08:28:38.780Z,2.30
2023-03-29T08:33:41.077Z,2.40
2023-03-29T08:38:42.740Z,2.80
2023-03-29T08:44:06.554Z,2.00
2023-03-29T08:49:12.115Z,2.10
2023-03-29T08:54:22.057Z,2.90
2023-03-29T08:59:29.287Z,2.10
2023-03-29T09:04:38.666Z,2.00
2023-03-29T09:09:42.826Z,2.00
2023-03-29T09:15:32.008Z,1.40
2023-03-29T09:20:58.530Z,1.80
2023-03-29T09:26:12.560Z,2.00
2023-03-29T09:31:20.880Z,2.60
2023-03-29T09:36:32.714Z,2.00
2023-03-29T09:41:44.891Z,1.50
2023-03-29T09:47:19.229Z,1.50
2023-03-29T09:52:21.514Z,1.60
2023-03-29T09:57:23.305Z,1.70
2023-03-29T10:02:31.670Z,2.00
2023-03-29T10:07:44.772Z,2.50
2023-03-29T10:12:50.458Z,2.00
2023-03-29T10:17:58.902Z,1.60
2023-03-29T10:23:00.851Z,1.70
2023-03-29T10:28:16.278Z,2.50
2023-03-29T10:33:21.189Z,1.90
2023-03-29T10:38:26.032Z,2.90
2023-03-29T10:43:34.867Z,3.30
2023-03-29T10:48:36.748Z,2.20
2023-03-29T10:53:38.304Z,1.90
2023-03-29T10:59:17.793Z,2.00
2023-03-29T11:04:23.176Z,1.60
2023-03-29T11:09:31.071Z,2.10
2023-03-29T11:14:52.474Z,2.10
2023-03-29T11:20:11.316Z,2.30
2023-03-29T11:25:31.069Z,1.70
2023-03-29T11:30:51.933Z,2.30
2023-03-29T11:36:04.954Z,1.80
2023-03-29T11:41:19.768Z,2.50
2023-03-29T11:46:28.820Z,2.30
2023-03-29T11:51:38.077Z,2.10
2023-03-29T11:56:52.351Z,1.80
2023-03-29T12:02:05.426Z,2.70
2023-03-29T12:07:28.831Z,2.00
2023-03-29T12:12:46.762Z,2.30
2023-03-29T12:18:07.056Z,2.10
2023-03-29T12:23:14.505Z,1.80
2023-03-29T12:29:00.545Z,2.70
2023-03-29T12:34:40.694Z,2.30
2023-03-29T12:39:42.984Z,2.40
2023-03-29T12:44:50.545Z,3.50
2023-03-29T12:49:58.201Z,2.20
2023-03-29T12:55:02.978Z,1.90
2023-03-29T13:00:23.824Z,3.20
2023-03-29T13:05:32.396Z,4.30
2023-03-29T13:10:42.119Z,4.30
2023-03-29T13:15:45.198Z,5.10
2023-03-29T13:20:53.560Z,3.70
2023-03-29T13:25:55.587Z,3.40
2023-03-29T13:31:31.345Z,4.00
2023-03-29T13:36:56.778Z,3.60
2023-03-29T13:42:18.021Z,2.50
2023-03-29T13:47:19.525Z,5.60
2023-03-29T13:52:28.729Z,3.50
2023-03-29T13:57:38.280Z,3.00
2023-03-29T14:02:49.674Z,5.20
2023-03-29T14:07:53.748Z,3.10
2023-03-29T14:12:56.727Z,4.40
2023-03-29T14:18:00.649Z,3.40
2023-03-29T14:23:09.986Z,3.80
2023-03-29T14:28:23.881Z,5.70
2023-03-29T14:33:27.380Z,2.70
2023-03-29T14:38:29.959Z,9.40
2023-03-29T14:43:32.184Z,9.70
2023-03-29T14:48:35.648Z,12.20
2023-03-29T14:53:39.027Z,5.00
2023-03-29T14:58:46.682Z,14.50
2023-03-29T15:04:08.928Z,6.00
2023-03-29T15:09:34.620Z,5.90
2023-03-29T15:14:38.226Z,4.70
2023-03-29T15:24:48.739Z,7.20
2023-03-29T15:30:00.985Z,11.30
2023-03-29T15:35:27.387Z,5.50
2023-03-29T15:40:28.957Z,7.90
2023-03-29T15:45:30.475Z,6.60
2023-03-29T15:50:32.617Z,5.70
2023-03-29T15:55:34.188Z,7.00
2023-03-29T16:00:36.795Z,6.10
2023-03-29T16:05:38.293Z,6.70
2023-03-29T16:10:41.425Z,7.30
2023-03-29T16:15:43.326Z,9.70
2023-03-29T16:20:44.936Z,6.50
2023-03-29T16:25:46.439Z,8.30
2023-03-29T16:30:48.872Z,6.50
2023-03-29T16:35:50.996Z,7.80
2023-03-29T16:40:53.822Z,7.20
2023-03-29T16:45:55.584Z,5.40
2023-03-29T16:50:57.587Z,7.30
2023-03-29T16:55:59.123Z,36.20
2023-03-29T17:01:09.679Z,34.60
2023-03-29T17:06:12.275Z,24.30
2023-03-29T17:11:14.148Z,50.00
2023-03-29T17:16:17.210Z,62.30
2023-03-29T17:21:19.138Z,62.10
2023-03-29T17:26:20.666Z,61.10
2023-03-29T17:31:22.413Z,70.60
2023-03-29T17:36:25.498Z,64.50
2023-03-29T17:41:29.132Z,53.90
2023-03-29T17:46:32.483Z,47.50
2023-03-29T17:51:34.434Z,41.90
2023-03-29T17:56:42.112Z,37.90
2023-03-29T18:01:44.537Z,38.00
2023-03-29T18:06:46.861Z,71.50
2023-03-29T18:11:49.006Z,104.10
2023-03-29T18:16:51.230Z,87.30
2023-03-29T18:21:53.592Z,69.30
2023-03-29T18:26:56.591Z,65.50
2023-03-29T18:32:02.892Z,65.80
2023-03-29T18:37:05.376Z,57.10
2023-03-29T18:42:09.190Z,35.60
2023-03-29T18:47:12.785Z,24.00
2023-03-29T18:52:14.337Z,28.00
2023-03-29T18:57:15.924Z,23.90
2023-03-29T19:02:17.655Z,23.80
2023-03-29T19:07:20.644Z,26.20
2023-03-29T19:12:22.345Z,28.10
2023-03-29T19:17:24.081Z,26.60
2023-03-29T19:22:25.953Z,26.70
2023-03-29T19:27:27.437Z,27.10
2023-03-29T19:32:31.306Z,26.30
2023-03-29T19:37:34.087Z,22.40
2023-03-29T19:42:36.232Z,21.10
2023-03-29T19:47:37.842Z,14.50
2023-03-29T19:52:41.196Z,19.10
2023-03-29T19:57:42.699Z,15.80
2023-03-29T20:02:44.605Z,17.60
2023-03-29T20:07:46.205Z,14.80
2023-03-29T20:12:48.018Z,15.70
2023-03-29T20:17:51.437Z,11.80
2023-03-29T20:22:58.243Z,12.60
2023-03-29T20:28:00.607Z,11.20
2023-03-29T20:33:02.215Z,10.50
2023-03-29T20:38:03.811Z,13.00
2023-03-29T20:43:05.307Z,16.60
2023-03-29T20:48:07.402Z,24.50
2023-03-29T20:53:08.917Z,15.70
2023-03-29T20:58:10.501Z,13.30
2023-03-29T21:03:12.274Z,9.60
2023-03-29T21:08:17.555Z,9.80
2023-03-29T21:13:19.115Z,9.30
2023-03-29T21:18:21.366Z,12.30
2023-03-29T21:23:22.844Z,11.50
2023-03-29T21:28:24.386Z,9.30
2023-03-29T21:33:25.872Z,8.80
2023-03-29T21:38:28.294Z,9.10
2023-03-29T21:43:29.807Z,11.10
2023-03-29T21:48:31.887Z,10.30
2023-03-29T21:53:33.548Z,10.30
2023-03-29T21:58:35.313Z,7.80
2023-03-29T22:03:38.136Z,11.20
2023-03-29T22:08:40.036Z,9.20
2023-03-29T22:13:43.080Z,11.20
2023-03-29T22:18:49.714Z,8.10
2023-03-29T22:23:54.270Z,7.10
2023-03-29T22:28:57.416Z,8.70
2023-03-29T22:33:59.821Z,8.20
2023-03-29T22:39:01.346Z,8.60
2023-03-29T22:44:03.072Z,10.00
2023-03-29T22:49:04.585Z,7.00
2023-03-29T22:54:06.196Z,7.20
2023-03-29T22:59:07.666Z,6.80
2023-03-29T23:04:09.147Z,9.10
2023-03-29T23:09:11.104Z,7.00
2023-03-29T23:14:12.619Z,7.40
2023-03-29T23:19:14.136Z,5.90
2023-03-29T23:24:19.161Z,8.80
2023-03-29T23:29:20.927Z,9.80
2023-03-29T23:34:22.960Z,9.40
2023-03-29T23:39:25.231Z,8.40
2023-03-29T23:44:27.005Z,6.80
2023-03-29T23:49:28.489Z,7.40
2023-03-29T23:54:30.358Z,8.20
2023-03-29T23:59:37.670Z,8.60
